sensor_id;sensor_type;location;lat;lon;timestamp;P1;durP1;ratioP1;P2;durP2;ratioP2
3795;SDS011;1913;50.660;7.834;2024-02-28T00:01:00;634.80;;;80.13;;
3795;SDS011;1913;50.660;7.834;2024-02-28T00:03:25;357.57;;;55.90;;
3795;SDS011;1913;50.660;7.834;2024-02-28T00:05:50;851.87;;;101.00;;
3795;SDS011;1913;50.660;7.834;2024-02-28T00:08:16;458.77;;;68.80;;
3795;SDS011;1913;50.660;7.834;2024-02-28T00:10:42;649.50;;;74.80;;
3795;SDS011;1913;50.660;7.834;2024-02-28T00:13:07;570.53;;;77.30;;
3795;SDS011;1913;50.660;7.834;2024-02-28T00:15:32;1030.30;;;112.50;;
3795;SDS011;1913;50.660;7.834;2024-02-28T00:17:57;465.80;;;70.23;;
3795;SDS011;1913;50.660;7.834;2024-02-28T00:20:23;755.43;;;89.17;;
3795;SDS011;1913;50.660;7.834;2024-02-28T00:22:52;324.33;;;59.47;;
3795;SDS011;1913;50.660;7.834;2024-02-28T00:25:17;289.47;;;57.43;;
3795;SDS011;1913;50.660;7.834;2024-02-28T00:27:42;347.13;;;56.47;;
3795;SDS011;1913;50.660;7.834;2024-02-28T00:30:07;871.40;;;106.90;;
3795;SDS011;1913;50.660;7.834;2024-02-28T00:32:33;632.80;;;76.57;;
3795;SDS011;1913;50.660;7.834;2024-02-28T00:34:58;390.73;;;59.57;;
3795;SDS011;1913;50.660;7.834;2024-02-28T00:37:23;260.40;;;50.80;;
3795;SDS011;1913;50.660;7.834;2024-02-28T00:39:49;215.37;;;47.60;;
3795;SDS011;1913;50.660;7.834;2024-02-28T00:42:14;465.30;;;69.17;;
3795;SDS011;1913;50.660;7.834;2024-02-28T00:44:39;371.23;;;58.33;;
3795;SDS011;1913;50.660;7.834;2024-02-28T00:47:07;267.90;;;56.70;;
3795;SDS011;1913;50.660;7.834;2024-02-28T00:49:32;663.10;;;85.80;;
3795;SDS011;1913;50.660;7.834;2024-02-28T00:51:57;221.97;;;45.93;;
3795;SDS011;1913;50.660;7.834;2024-02-28T00:54:22;323.63;;;57.20;;
3795;SDS011;1913;50.660;7.834;2024-02-28T00:56:48;198.73;;;45.17;;
3795;SDS011;1913;50.660;7.834;2024-02-28T00:59:14;351.30;;;53.20;;
3795;SDS011;1913;50.660;7.834;2024-02-28T01:01:39;538.07;;;66.10;;
3795;SDS011;1913;50.660;7.834;2024-02-28T01:04:05;129.07;;;40.60;;
3795;SDS011;1913;50.660;7.834;2024-02-28T01:06:30;304.77;;;55.33;;
3795;SDS011;1913;50.660;7.834;2024-02-28T01:08:55;223.17;;;45.07;;
3795;SDS011;1913;50.660;7.834;2024-02-28T01:11:20;510.13;;;66.33;;
3795;SDS011;1913;50.660;7.834;2024-02-28T01:13:45;367.00;;;61.63;;
3795;SDS011;1913;50.660;7.834;2024-02-28T01:16:11;532.63;;;66.30;;
3795;SDS011;1913;50.660;7.834;2024-02-28T01:18:36;189.10;;;42.07;;
3795;SDS011;1913;50.660;7.834;2024-02-28T01:21:01;668.67;;;75.60;;
3795;SDS011;1913;50.660;7.834;2024-02-28T01:23:26;675.90;;;79.13;;
3795;SDS011;1913;50.660;7.834;2024-02-28T01:25:51;905.53;;;92.13;;
3795;SDS011;1913;50.660;7.834;2024-02-28T01:28:17;1086.70;;;112.57;;
3795;SDS011;1913;50.660;7.834;2024-02-28T01:30:42;389.80;;;52.90;;
3795;SDS011;1913;50.660;7.834;2024-02-28T01:33:07;501.90;;;57.73;;
3795;SDS011;1913;50.660;7.834;2024-02-28T01:35:32;1017.50;;;98.33;;
3795;SDS011;1913;50.660;7.834;2024-02-28T01:37:57;1112.67;;;109.67;;
3795;SDS011;1913;50.660;7.834;2024-02-28T01:40:23;396.20;;;57.00;;
3795;SDS011;1913;50.660;7.834;2024-02-28T01:42:48;584.77;;;70.23;;
3795;SDS011;1913;50.660;7.834;2024-02-28T01:45:13;696.03;;;83.80;;
3795;SDS011;1913;50.660;7.834;2024-02-28T01:47:39;515.03;;;64.70;;
3795;SDS011;1913;50.660;7.834;2024-02-28T01:50:05;280.83;;;47.07;;
3795;SDS011;1913;50.660;7.834;2024-02-28T01:52:30;509.77;;;62.63;;
3795;SDS011;1913;50.660;7.834;2024-02-28T01:54:55;249.73;;;45.47;;
3795;SDS011;1913;50.660;7.834;2024-02-28T01:57:21;686.13;;;75.03;;
3795;SDS011;1913;50.660;7.834;2024-02-28T01:59:46;478.60;;;62.80;;
3795;SDS011;1913;50.660;7.834;2024-02-28T02:02:12;489.57;;;59.67;;
3795;SDS011;1913;50.660;7.834;2024-02-28T02:04:37;836.87;;;84.47;;
3795;SDS011;1913;50.660;7.834;2024-02-28T02:07:02;339.03;;;52.40;;
3795;SDS011;1913;50.660;7.834;2024-02-28T02:09:28;1021.23;;;102.20;;
3795;SDS011;1913;50.660;7.834;2024-02-28T02:11:53;605.20;;;64.43;;
3795;SDS011;1913;50.660;7.834;2024-02-28T02:14:18;591.87;;;67.30;;
3795;SDS011;1913;50.660;7.834;2024-02-28T02:16:44;280.47;;;44.93;;
3795;SDS011;1913;50.660;7.834;2024-02-28T02:19:09;574.87;;;69.47;;
3795;SDS011;1913;50.660;7.834;2024-02-28T02:21:37;514.83;;;65.03;;
3795;SDS011;1913;50.660;7.834;2024-02-28T02:24:04;767.70;;;86.07;;
3795;SDS011;1913;50.660;7.834;2024-02-28T02:26:30;780.10;;;80.57;;
3795;SDS011;1913;50.660;7.834;2024-02-28T02:28:55;915.03;;;90.73;;
3795;SDS011;1913;50.660;7.834;2024-02-28T02:31:20;901.37;;;94.00;;
3795;SDS011;1913;50.660;7.834;2024-02-28T02:33:45;599.37;;;67.00;;
3795;SDS011;1913;50.660;7.834;2024-02-28T02:36:11;761.23;;;78.40;;
3795;SDS011;1913;50.660;7.834;2024-02-28T02:38:36;794.83;;;86.47;;
3795;SDS011;1913;50.660;7.834;2024-02-28T02:41:01;164.30;;;38.87;;
3795;SDS011;1913;50.660;7.834;2024-02-28T02:43:26;366.60;;;54.00;;
3795;SDS011;1913;50.660;7.834;2024-02-28T02:45:51;496.30;;;59.93;;
3795;SDS011;1913;50.660;7.834;2024-02-28T02:48:17;299.40;;;46.77;;
3795;SDS011;1913;50.660;7.834;2024-02-28T02:50:42;313.57;;;51.30;;
3795;SDS011;1913;50.660;7.834;2024-02-28T02:53:09;552.93;;;65.17;;
3795;SDS011;1913;50.660;7.834;2024-02-28T02:55:34;550.83;;;63.87;;
3795;SDS011;1913;50.660;7.834;2024-02-28T02:57:59;270.20;;;41.67;;
3795;SDS011;1913;50.660;7.834;2024-02-28T03:00:25;545.63;;;64.17;;
3795;SDS011;1913;50.660;7.834;2024-02-28T03:02:50;241.77;;;41.10;;
3795;SDS011;1913;50.660;7.834;2024-02-28T03:05:15;198.83;;;37.13;;
3795;SDS011;1913;50.660;7.834;2024-02-28T03:07:40;562.50;;;59.03;;
3795;SDS011;1913;50.660;7.834;2024-02-28T03:10:06;175.73;;;37.10;;
3795;SDS011;1913;50.660;7.834;2024-02-28T03:12:31;97.90;;;32.20;;
3795;SDS011;1913;50.660;7.834;2024-02-28T03:14:56;525.67;;;61.97;;
3795;SDS011;1913;50.660;7.834;2024-02-28T03:17:22;685.30;;;71.87;;
3795;SDS011;1913;50.660;7.834;2024-02-28T03:19:47;334.17;;;50.60;;
3795;SDS011;1913;50.660;7.834;2024-02-28T03:22:12;489.53;;;56.87;;
3795;SDS011;1913;50.660;7.834;2024-02-28T03:24:37;659.17;;;71.83;;
3795;SDS011;1913;50.660;7.834;2024-02-28T03:27:02;392.47;;;51.30;;
3795;SDS011;1913;50.660;7.834;2024-02-28T03:29:28;381.03;;;51.73;;
3795;SDS011;1913;50.660;7.834;2024-02-28T03:31:53;481.43;;;57.63;;
3795;SDS011;1913;50.660;7.834;2024-02-28T03:34:18;254.37;;;42.83;;
3795;SDS011;1913;50.660;7.834;2024-02-28T03:36:44;418.80;;;51.37;;
3795;SDS011;1913;50.660;7.834;2024-02-28T03:39:09;331.10;;;44.93;;
3795;SDS011;1913;50.660;7.834;2024-02-28T03:41:34;185.03;;;40.17;;
3795;SDS011;1913;50.660;7.834;2024-02-28T03:44:00;251.03;;;43.90;;
3795;SDS011;1913;50.660;7.834;2024-02-28T03:46:25;350.70;;;48.87;;
3795;SDS011;1913;50.660;7.834;2024-02-28T03:48:50;374.23;;;50.87;;
3795;SDS011;1913;50.660;7.834;2024-02-28T03:51:15;340.93;;;49.33;;
3795;SDS011;1913;50.660;7.834;2024-02-28T03:53:40;203.70;;;40.17;;
3795;SDS011;1913;50.660;7.834;2024-02-28T03:56:06;428.70;;;51.77;;
3795;SDS011;1913;50.660;7.834;2024-02-28T03:58:31;219.00;;;36.77;;
3795;SDS011;1913;50.660;7.834;2024-02-28T04:00:56;647.20;;;70.87;;
3795;SDS011;1913;50.660;7.834;2024-02-28T04:03:21;215.33;;;38.13;;
3795;SDS011;1913;50.660;7.834;2024-02-28T04:05:47;223.40;;;40.73;;
3795;SDS011;1913;50.660;7.834;2024-02-28T04:08:12;761.10;;;80.07;;
3795;SDS011;1913;50.660;7.834;2024-02-28T04:10:37;276.77;;;44.23;;
3795;SDS011;1913;50.660;7.834;2024-02-28T04:13:02;420.07;;;47.50;;
3795;SDS011;1913;50.660;7.834;2024-02-28T04:15:28;408.37;;;50.13;;
3795;SDS011;1913;50.660;7.834;2024-02-28T04:17:54;494.30;;;56.80;;
3795;SDS011;1913;50.660;7.834;2024-02-28T04:20:19;572.47;;;64.20;;
3795;SDS011;1913;50.660;7.834;2024-02-28T04:22:44;372.80;;;50.00;;
3795;SDS011;1913;50.660;7.834;2024-02-28T04:25:09;420.77;;;51.40;;
3795;SDS011;1913;50.660;7.834;2024-02-28T04:27:35;571.23;;;62.27;;
3795;SDS011;1913;50.660;7.834;2024-02-28T04:30:00;499.57;;;55.73;;
3795;SDS011;1913;50.660;7.834;2024-02-28T04:32:25;540.50;;;64.07;;
3795;SDS011;1913;50.660;7.834;2024-02-28T04:34:51;236.37;;;37.63;;
3795;SDS011;1913;50.660;7.834;2024-02-28T04:37:16;638.47;;;73.83;;
3795;SDS011;1913;50.660;7.834;2024-02-28T04:39:41;201.60;;;36.63;;
3795;SDS011;1913;50.660;7.834;2024-02-28T04:42:07;485.63;;;56.67;;
3795;SDS011;1913;50.660;7.834;2024-02-28T04:44:32;444.63;;;52.67;;
3795;SDS011;1913;50.660;7.834;2024-02-28T04:46:57;561.43;;;61.97;;
3795;SDS011;1913;50.660;7.834;2024-02-28T04:49:23;549.37;;;61.87;;
3795;SDS011;1913;50.660;7.834;2024-02-28T04:51:48;585.43;;;72.10;;
3795;SDS011;1913;50.660;7.834;2024-02-28T04:54:13;148.13;;;36.23;;
3795;SDS011;1913;50.660;7.834;2024-02-28T04:56:39;317.33;;;46.17;;
3795;SDS011;1913;50.660;7.834;2024-02-28T04:59:04;240.90;;;40.20;;
3795;SDS011;1913;50.660;7.834;2024-02-28T05:01:30;543.00;;;61.77;;
3795;SDS011;1913;50.660;7.834;2024-02-28T05:03:56;322.67;;;46.23;;
3795;SDS011;1913;50.660;7.834;2024-02-28T05:06:21;135.87;;;34.27;;
3795;SDS011;1913;50.660;7.834;2024-02-28T05:08:46;571.87;;;67.17;;
3795;SDS011;1913;50.660;7.834;2024-02-28T05:11:11;394.27;;;51.97;;
3795;SDS011;1913;50.660;7.834;2024-02-28T05:13:37;724.50;;;75.40;;
3795;SDS011;1913;50.660;7.834;2024-02-28T05:18:32;353.30;;;45.10;;
3795;SDS011;1913;50.660;7.834;2024-02-28T05:20:57;155.87;;;34.27;;
3795;SDS011;1913;50.660;7.834;2024-02-28T05:23:23;196.63;;;36.97;;
3795;SDS011;1913;50.660;7.834;2024-02-28T05:25:48;448.63;;;52.13;;
3795;SDS011;1913;50.660;7.834;2024-02-28T05:28:14;1098.00;;;102.03;;
3795;SDS011;1913;50.660;7.834;2024-02-28T05:30:39;407.17;;;46.83;;
3795;SDS011;1913;50.660;7.834;2024-02-28T05:33:04;515.90;;;58.23;;
3795;SDS011;1913;50.660;7.834;2024-02-28T05:35:30;1118.50;;;108.90;;
3795;SDS011;1913;50.660;7.834;2024-02-28T05:37:55;608.87;;;61.97;;
3795;SDS011;1913;50.660;7.834;2024-02-28T05:40:20;626.73;;;74.57;;
3795;SDS011;1913;50.660;7.834;2024-02-28T05:42:45;410.90;;;53.83;;
3795;SDS011;1913;50.660;7.834;2024-02-28T05:45:10;240.37;;;36.17;;
3795;SDS011;1913;50.660;7.834;2024-02-28T05:47:36;747.13;;;75.27;;
3795;SDS011;1913;50.660;7.834;2024-02-28T05:50:01;579.00;;;62.03;;
3795;SDS011;1913;50.660;7.834;2024-02-28T05:52:26;93.93;;;31.50;;
3795;SDS011;1913;50.660;7.834;2024-02-28T05:54:52;463.73;;;52.03;;
3795;SDS011;1913;50.660;7.834;2024-02-28T05:57:17;379.63;;;42.37;;
3795;SDS011;1913;50.660;7.834;2024-02-28T05:59:42;331.27;;;45.03;;
3795;SDS011;1913;50.660;7.834;2024-02-28T06:02:08;275.83;;;42.17;;
3795;SDS011;1913;50.660;7.834;2024-02-28T06:04:33;303.13;;;44.37;;
3795;SDS011;1913;50.660;7.834;2024-02-28T06:06:58;493.70;;;59.87;;
3795;SDS011;1913;50.660;7.834;2024-02-28T06:09:23;384.93;;;46.53;;
3795;SDS011;1913;50.660;7.834;2024-02-28T06:11:49;537.50;;;57.60;;
3795;SDS011;1913;50.660;7.834;2024-02-28T06:14:14;475.83;;;54.63;;
3795;SDS011;1913;50.660;7.834;2024-02-28T06:16:39;730.33;;;69.50;;
3795;SDS011;1913;50.660;7.834;2024-02-28T06:19:04;187.07;;;32.43;;
3795;SDS011;1913;50.660;7.834;2024-02-28T06:21:30;398.17;;;43.77;;
3795;SDS011;1913;50.660;7.834;2024-02-28T06:23:55;539.83;;;52.87;;
3795;SDS011;1913;50.660;7.834;2024-02-28T06:26:20;314.77;;;38.90;;
3795;SDS011;1913;50.660;7.834;2024-02-28T06:28:46;971.33;;;82.63;;
3795;SDS011;1913;50.660;7.834;2024-02-28T06:31:14;544.70;;;52.40;;
3795;SDS011;1913;50.660;7.834;2024-02-28T06:33:40;462.93;;;50.40;;
3795;SDS011;1913;50.660;7.834;2024-02-28T06:36:05;152.60;;;32.13;;
3795;SDS011;1913;50.660;7.834;2024-02-28T06:38:31;230.77;;;33.03;;
3795;SDS011;1913;50.660;7.834;2024-02-28T06:40:56;458.73;;;50.90;;
3795;SDS011;1913;50.660;7.834;2024-02-28T06:43:21;757.63;;;76.47;;
3795;SDS011;1913;50.660;7.834;2024-02-28T06:45:46;345.07;;;40.03;;
3795;SDS011;1913;50.660;7.834;2024-02-28T06:48:12;369.03;;;46.57;;
3795;SDS011;1913;50.660;7.834;2024-02-28T06:50:37;105.47;;;26.80;;
3795;SDS011;1913;50.660;7.834;2024-02-28T06:53:02;276.27;;;36.03;;
3795;SDS011;1913;50.660;7.834;2024-02-28T06:55:28;174.57;;;27.43;;
3795;SDS011;1913;50.660;7.834;2024-02-28T06:57:54;751.97;;;68.60;;
3795;SDS011;1913;50.660;7.834;2024-02-28T07:00:19;321.73;;;37.30;;
3795;SDS011;1913;50.660;7.834;2024-02-28T07:02:44;83.17;;;23.97;;
3795;SDS011;1913;50.660;7.834;2024-02-28T07:05:10;372.07;;;43.77;;
3795;SDS011;1913;50.660;7.834;2024-02-28T07:07:36;260.53;;;34.90;;
3795;SDS011;1913;50.660;7.834;2024-02-28T07:10:04;254.43;;;33.47;;
3795;SDS011;1913;50.660;7.834;2024-02-28T07:12:29;477.07;;;50.47;;
3795;SDS011;1913;50.660;7.834;2024-02-28T07:14:54;453.07;;;50.80;;
3795;SDS011;1913;50.660;7.834;2024-02-28T07:17:20;445.83;;;48.73;;
3795;SDS011;1913;50.660;7.834;2024-02-28T07:19:45;552.03;;;55.80;;
3795;SDS011;1913;50.660;7.834;2024-02-28T07:22:11;600.10;;;57.30;;
3795;SDS011;1913;50.660;7.834;2024-02-28T07:24:36;324.07;;;38.63;;
3795;SDS011;1913;50.660;7.834;2024-02-28T07:27:02;392.83;;;41.40;;
3795;SDS011;1913;50.660;7.834;2024-02-28T07:29:27;572.37;;;52.17;;
3795;SDS011;1913;50.660;7.834;2024-02-28T07:31:52;499.27;;;49.03;;
3795;SDS011;1913;50.660;7.834;2024-02-28T07:34:17;528.27;;;55.63;;
3795;SDS011;1913;50.660;7.834;2024-02-28T07:36:43;544.07;;;53.83;;
3795;SDS011;1913;50.660;7.834;2024-02-28T07:39:08;192.03;;;35.27;;
3795;SDS011;1913;50.660;7.834;2024-02-28T07:41:40;412.80;;;47.00;;
3795;SDS011;1913;50.660;7.834;2024-02-28T07:44:06;344.90;;;38.30;;
3795;SDS011;1913;50.660;7.834;2024-02-28T07:46:32;822.17;;;75.50;;
3795;SDS011;1913;50.660;7.834;2024-02-28T07:48:57;732.23;;;64.83;;
3795;SDS011;1913;50.660;7.834;2024-02-28T07:51:22;799.13;;;70.53;;
3795;SDS011;1913;50.660;7.834;2024-02-28T07:53:47;83.33;;;22.50;;
3795;SDS011;1913;50.660;7.834;2024-02-28T07:56:16;809.33;;;72.60;;
3795;SDS011;1913;50.660;7.834;2024-02-28T07:58:42;337.43;;;39.67;;
3795;SDS011;1913;50.660;7.834;2024-02-28T08:01:07;329.10;;;37.43;;
3795;SDS011;1913;50.660;7.834;2024-02-28T08:03:33;162.83;;;30.47;;
3795;SDS011;1913;50.660;7.834;2024-02-28T08:05:58;333.17;;;35.57;;
3795;SDS011;1913;50.660;7.834;2024-02-28T08:08:23;647.40;;;54.00;;
3795;SDS011;1913;50.660;7.834;2024-02-28T08:10:48;354.93;;;38.83;;
3795;SDS011;1913;50.660;7.834;2024-02-28T08:13:14;217.47;;;33.20;;
3795;SDS011;1913;50.660;7.834;2024-02-28T08:15:39;203.80;;;31.83;;
3795;SDS011;1913;50.660;7.834;2024-02-28T08:18:04;263.23;;;34.43;;
3795;SDS011;1913;50.660;7.834;2024-02-28T08:20:29;356.37;;;36.20;;
3795;SDS011;1913;50.660;7.834;2024-02-28T08:22:55;517.63;;;46.80;;
3795;SDS011;1913;50.660;7.834;2024-02-28T08:25:22;443.57;;;42.43;;
3795;SDS011;1913;50.660;7.834;2024-02-28T08:27:47;255.33;;;32.53;;
3795;SDS011;1913;50.660;7.834;2024-02-28T08:30:13;662.33;;;52.80;;
3795;SDS011;1913;50.660;7.834;2024-02-28T08:32:40;360.87;;;38.03;;
3795;SDS011;1913;50.660;7.834;2024-02-28T08:35:06;173.50;;;27.40;;
3795;SDS011;1913;50.660;7.834;2024-02-28T08:37:32;172.63;;;27.13;;
3795;SDS011;1913;50.660;7.834;2024-02-28T08:39:57;150.83;;;26.43;;
3795;SDS011;1913;50.660;7.834;2024-02-28T08:42:24;186.17;;;29.43;;
3795;SDS011;1913;50.660;7.834;2024-02-28T08:44:49;214.57;;;30.40;;
3795;SDS011;1913;50.660;7.834;2024-02-28T08:47:14;178.03;;;27.67;;
3795;SDS011;1913;50.660;7.834;2024-02-28T08:49:40;261.70;;;30.20;;
3795;SDS011;1913;50.660;7.834;2024-02-28T08:52:05;116.03;;;23.80;;
3795;SDS011;1913;50.660;7.834;2024-02-28T08:54:30;154.67;;;26.53;;
3795;SDS011;1913;50.660;7.834;2024-02-28T08:56:55;142.00;;;28.50;;
3795;SDS011;1913;50.660;7.834;2024-02-28T08:59:21;100.80;;;23.53;;
3795;SDS011;1913;50.660;7.834;2024-02-28T09:01:47;95.70;;;24.00;;
3795;SDS011;1913;50.660;7.834;2024-02-28T09:04:12;101.57;;;24.03;;
3795;SDS011;1913;50.660;7.834;2024-02-28T09:06:37;91.93;;;21.57;;
3795;SDS011;1913;50.660;7.834;2024-02-28T09:09:02;231.07;;;27.93;;
3795;SDS011;1913;50.660;7.834;2024-02-28T09:11:28;75.70;;;23.30;;
3795;SDS011;1913;50.660;7.834;2024-02-28T09:13:54;317.33;;;34.17;;
3795;SDS011;1913;50.660;7.834;2024-02-28T09:16:19;115.53;;;24.33;;
3795;SDS011;1913;50.660;7.834;2024-02-28T09:18:45;68.60;;;20.90;;
3795;SDS011;1913;50.660;7.834;2024-02-28T09:21:10;139.40;;;24.37;;
3795;SDS011;1913;50.660;7.834;2024-02-28T09:23:35;276.87;;;30.07;;
3795;SDS011;1913;50.660;7.834;2024-02-28T09:26:04;228.63;;;26.43;;
3795;SDS011;1913;50.660;7.834;2024-02-28T09:28:29;50.80;;;20.77;;
3795;SDS011;1913;50.660;7.834;2024-02-28T09:30:54;236.10;;;29.17;;
3795;SDS011;1913;50.660;7.834;2024-02-28T09:33:19;250.90;;;29.77;;
3795;SDS011;1913;50.660;7.834;2024-02-28T09:35:45;181.90;;;23.63;;
3795;SDS011;1913;50.660;7.834;2024-02-28T09:38:10;171.23;;;26.40;;
3795;SDS011;1913;50.660;7.834;2024-02-28T09:40:35;245.87;;;28.83;;
3795;SDS011;1913;50.660;7.834;2024-02-28T09:43:01;125.20;;;23.77;;
3795;SDS011;1913;50.660;7.834;2024-02-28T09:45:28;322.77;;;33.87;;
3795;SDS011;1913;50.660;7.834;2024-02-28T09:47:56;425.87;;;38.20;;
3795;SDS011;1913;50.660;7.834;2024-02-28T09:50:21;292.83;;;32.10;;
3795;SDS011;1913;50.660;7.834;2024-02-28T09:52:46;75.43;;;22.10;;
3795;SDS011;1913;50.660;7.834;2024-02-28T09:55:12;130.80;;;27.33;;
3795;SDS011;1913;50.660;7.834;2024-02-28T09:57:37;53.30;;;19.43;;
3795;SDS011;1913;50.660;7.834;2024-02-28T10:00:02;58.37;;;20.43;;
3795;SDS011;1913;50.660;7.834;2024-02-28T10:02:28;59.37;;;21.83;;
3795;SDS011;1913;50.660;7.834;2024-02-28T10:04:54;48.47;;;19.07;;
3795;SDS011;1913;50.660;7.834;2024-02-28T10:07:20;44.37;;;19.00;;
3795;SDS011;1913;50.660;7.834;2024-02-28T10:09:46;51.37;;;20.03;;
3795;SDS011;1913;50.660;7.834;2024-02-28T10:12:12;46.70;;;19.00;;
3795;SDS011;1913;50.660;7.834;2024-02-28T10:14:37;50.60;;;19.00;;
3795;SDS011;1913;50.660;7.834;2024-02-28T10:17:03;44.50;;;19.60;;
3795;SDS011;1913;50.660;7.834;2024-02-28T10:19:28;39.73;;;17.67;;
3795;SDS011;1913;50.660;7.834;2024-02-28T10:21:54;40.90;;;18.30;;
3795;SDS011;1913;50.660;7.834;2024-02-28T10:24:20;42.80;;;19.60;;
3795;SDS011;1913;50.660;7.834;2024-02-28T10:26:46;51.17;;;20.37;;
3795;SDS011;1913;50.660;7.834;2024-02-28T10:29:23;48.50;;;20.10;;
3795;SDS011;1913;50.660;7.834;2024-02-28T10:31:49;46.20;;;19.97;;
3795;SDS011;1913;50.660;7.834;2024-02-28T10:34:17;53.50;;;21.47;;
3795;SDS011;1913;50.660;7.834;2024-02-28T10:36:46;54.33;;;21.43;;
3795;SDS011;1913;50.660;7.834;2024-02-28T10:39:11;51.00;;;21.30;;
3795;SDS011;1913;50.660;7.834;2024-02-28T10:41:39;45.50;;;20.30;;
3795;SDS011;1913;50.660;7.834;2024-02-28T10:44:04;52.00;;;22.53;;
3795;SDS011;1913;50.660;7.834;2024-02-28T10:46:33;48.23;;;20.97;;
3795;SDS011;1913;50.660;7.834;2024-02-28T10:48:58;52.20;;;22.40;;
3795;SDS011;1913;50.660;7.834;2024-02-28T10:51:24;49.67;;;22.50;;
3795;SDS011;1913;50.660;7.834;2024-02-28T10:54:13;48.80;;;21.07;;
3795;SDS011;1913;50.660;7.834;2024-02-28T10:56:40;46.30;;;21.70;;
3795;SDS011;1913;50.660;7.834;2024-02-28T10:59:06;45.40;;;20.47;;
3795;SDS011;1913;50.660;7.834;2024-02-28T11:01:33;46.33;;;20.47;;
3795;SDS011;1913;50.660;7.834;2024-02-28T11:03:59;50.77;;;21.20;;
3795;SDS011;1913;50.660;7.834;2024-02-28T11:06:24;50.53;;;20.50;;
3795;SDS011;1913;50.660;7.834;2024-02-28T11:08:51;47.30;;;21.53;;
3795;SDS011;1913;50.660;7.834;2024-02-28T11:11:21;51.13;;;21.17;;
3795;SDS011;1913;50.660;7.834;2024-02-28T11:13:52;41.07;;;18.07;;
3795;SDS011;1913;50.660;7.834;2024-02-28T11:16:31;39.80;;;18.87;;
3795;SDS011;1913;50.660;7.834;2024-02-28T11:18:56;42.07;;;19.80;;
3795;SDS011;1913;50.660;7.834;2024-02-28T11:21:28;33.97;;;16.90;;
3795;SDS011;1913;50.660;7.834;2024-02-28T11:23:59;33.13;;;17.43;;
3795;SDS011;1913;50.660;7.834;2024-02-28T11:26:25;31.53;;;17.00;;
3795;SDS011;1913;50.660;7.834;2024-02-28T11:28:51;29.70;;;16.23;;
3795;SDS011;1913;50.660;7.834;2024-02-28T11:31:16;34.00;;;16.43;;
3795;SDS011;1913;50.660;7.834;2024-02-28T11:33:43;32.13;;;17.20;;
3795;SDS011;1913;50.660;7.834;2024-02-28T11:36:08;39.33;;;20.03;;
3795;SDS011;1913;50.660;7.834;2024-02-28T11:38:36;35.93;;;19.40;;
3795;SDS011;1913;50.660;7.834;2024-02-28T11:41:04;33.67;;;18.80;;
3795;SDS011;1913;50.660;7.834;2024-02-28T11:43:33;36.13;;;19.60;;
3795;SDS011;1913;50.660;7.834;2024-02-28T11:45:59;33.57;;;19.00;;
3795;SDS011;1913;50.660;7.834;2024-02-28T11:48:24;34.80;;;19.67;;
3795;SDS011;1913;50.660;7.834;2024-02-28T11:50:50;35.57;;;19.70;;
3795;SDS011;1913;50.660;7.834;2024-02-28T11:53:16;35.50;;;20.03;;
3795;SDS011;1913;50.660;7.834;2024-02-28T11:55:41;32.90;;;19.57;;
3795;SDS011;1913;50.660;7.834;2024-02-28T11:58:08;38.00;;;20.47;;
3795;SDS011;1913;50.660;7.834;2024-02-28T12:00:34;34.80;;;19.67;;
3795;SDS011;1913;50.660;7.834;2024-02-28T12:03:05;32.60;;;19.57;;
3795;SDS011;1913;50.660;7.834;2024-02-28T12:05:33;33.70;;;19.57;;
3795;SDS011;1913;50.660;7.834;2024-02-28T12:07:58;34.97;;;19.47;;
3795;SDS011;1913;50.660;7.834;2024-02-28T12:10:24;29.50;;;18.80;;
3795;SDS011;1913;50.660;7.834;2024-02-28T12:12:50;31.60;;;18.93;;
3795;SDS011;1913;50.660;7.834;2024-02-28T12:15:15;31.47;;;18.90;;
3795;SDS011;1913;50.660;7.834;2024-02-28T12:17:42;37.33;;;21.07;;
3795;SDS011;1913;50.660;7.834;2024-02-28T12:20:07;34.60;;;20.97;;
3795;SDS011;1913;50.660;7.834;2024-02-28T12:22:33;33.90;;;19.70;;
3795;SDS011;1913;50.660;7.834;2024-02-28T12:24:58;32.93;;;19.63;;
3795;SDS011;1913;50.660;7.834;2024-02-28T12:27:25;34.03;;;18.93;;
3795;SDS011;1913;50.660;7.834;2024-02-28T12:29:50;36.43;;;20.67;;
3795;SDS011;1913;50.660;7.834;2024-02-28T12:32:16;31.67;;;18.70;;
3795;SDS011;1913;50.660;7.834;2024-02-28T12:34:42;29.13;;;17.83;;
3795;SDS011;1913;50.660;7.834;2024-02-28T12:37:08;31.30;;;17.80;;
3795;SDS011;1913;50.660;7.834;2024-02-28T12:39:33;31.57;;;18.10;;
3795;SDS011;1913;50.660;7.834;2024-02-28T12:41:59;30.13;;;17.33;;
3795;SDS011;1913;50.660;7.834;2024-02-28T12:44:24;34.03;;;19.43;;
3795;SDS011;1913;50.660;7.834;2024-02-28T12:46:49;29.30;;;17.53;;
3795;SDS011;1913;50.660;7.834;2024-02-28T12:49:15;31.37;;;17.93;;
3795;SDS011;1913;50.660;7.834;2024-02-28T12:51:40;28.40;;;16.10;;
3795;SDS011;1913;50.660;7.834;2024-02-28T12:54:06;30.90;;;18.70;;
3795;SDS011;1913;50.660;7.834;2024-02-28T12:56:32;31.60;;;18.30;;
3795;SDS011;1913;50.660;7.834;2024-02-28T12:58:57;29.13;;;17.20;;
3795;SDS011;1913;50.660;7.834;2024-02-28T13:01:23;28.97;;;17.00;;
3795;SDS011;1913;50.660;7.834;2024-02-28T13:03:48;29.97;;;18.20;;
3795;SDS011;1913;50.660;7.834;2024-02-28T13:06:17;26.90;;;15.20;;
3795;SDS011;1913;50.660;7.834;2024-02-28T13:08:42;27.20;;;17.10;;
3795;SDS011;1913;50.660;7.834;2024-02-28T13:11:08;33.00;;;19.47;;
3795;SDS011;1913;50.660;7.834;2024-02-28T13:13:34;30.77;;;17.80;;
3795;SDS011;1913;50.660;7.834;2024-02-28T13:15:59;31.37;;;16.43;;
3795;SDS011;1913;50.660;7.834;2024-02-28T13:18:24;28.50;;;16.47;;
3795;SDS011;1913;50.660;7.834;2024-02-28T13:20:50;30.53;;;16.40;;
3795;SDS011;1913;50.660;7.834;2024-02-28T13:23:16;28.23;;;17.70;;
3795;SDS011;1913;50.660;7.834;2024-02-28T13:25:41;29.73;;;17.07;;
3795;SDS011;1913;50.660;7.834;2024-02-28T13:28:06;30.00;;;16.50;;
3795;SDS011;1913;50.660;7.834;2024-02-28T13:30:32;28.20;;;16.63;;
3795;SDS011;1913;50.660;7.834;2024-02-28T13:32:57;31.40;;;17.53;;
3795;SDS011;1913;50.660;7.834;2024-02-28T13:35:22;30.93;;;17.07;;
3795;SDS011;1913;50.660;7.834;2024-02-28T13:37:47;30.20;;;16.90;;
3795;SDS011;1913;50.660;7.834;2024-02-28T13:40:13;27.53;;;16.43;;
3795;SDS011;1913;50.660;7.834;2024-02-28T13:42:38;28.00;;;17.17;;
3795;SDS011;1913;50.660;7.834;2024-02-28T13:45:04;30.80;;;17.00;;
3795;SDS011;1913;50.660;7.834;2024-02-28T13:47:32;25.90;;;16.10;;
3795;SDS011;1913;50.660;7.834;2024-02-28T13:49:58;26.93;;;16.13;;
3795;SDS011;1913;50.660;7.834;2024-02-28T13:52:24;26.07;;;15.00;;
3795;SDS011;1913;50.660;7.834;2024-02-28T13:54:52;23.33;;;13.77;;
3795;SDS011;1913;50.660;7.834;2024-02-28T13:57:17;19.57;;;12.80;;
3795;SDS011;1913;50.660;7.834;2024-02-28T13:59:42;20.80;;;12.17;;
3795;SDS011;1913;50.660;7.834;2024-02-28T14:02:08;18.60;;;10.87;;
3795;SDS011;1913;50.660;7.834;2024-02-28T14:04:35;18.03;;;10.40;;
3795;SDS011;1913;50.660;7.834;2024-02-28T14:07:00;21.70;;;12.30;;
3795;SDS011;1913;50.660;7.834;2024-02-28T14:09:25;18.00;;;11.00;;
3795;SDS011;1913;50.660;7.834;2024-02-28T14:11:51;15.27;;;9.00;;
3795;SDS011;1913;50.660;7.834;2024-02-28T14:14:16;15.80;;;9.33;;
3795;SDS011;1913;50.660;7.834;2024-02-28T14:16:41;16.13;;;9.47;;
3795;SDS011;1913;50.660;7.834;2024-02-28T14:19:08;16.90;;;9.17;;
3795;SDS011;1913;50.660;7.834;2024-02-28T14:21:33;19.53;;;10.20;;
3795;SDS011;1913;50.660;7.834;2024-02-28T14:23:58;16.53;;;9.03;;
3795;SDS011;1913;50.660;7.834;2024-02-28T14:26:24;15.27;;;9.03;;
3795;SDS011;1913;50.660;7.834;2024-02-28T14:28:49;16.10;;;9.33;;
3795;SDS011;1913;50.660;7.834;2024-02-28T14:31:14;16.03;;;8.33;;